createdAt,value
2016-08-10T00:00:42.165Z,13.84
2016-08-10T00:01:55.139Z,13.94
2016-08-10T00:03:08.115Z,13.86
2016-08-10T00:04:21.286Z,13.78
2016-08-10T00:05:34.455Z,13.9
2016-08-10T00:06:47.623Z,13.84
2016-08-10T00:08:00.591Z,13.76
2016-08-10T00:09:13.559Z,13.81
2016-08-10T00:10:26.535Z,13.84
2016-08-10T00:11:39.516Z,13.87
2016-08-10T00:12:52.499Z,13.81
2016-08-10T00:14:05.472Z,13.81
2016-08-10T00:15:18.452Z,13.84
2016-08-10T00:16:31.423Z,13.81
2016-08-10T00:17:44.404Z,13.79
2016-08-10T00:18:57.567Z,13.83
2016-08-10T00:20:10.558Z,13.75
2016-08-10T00:21:23.531Z,13.72
2016-08-10T00:22:35.769Z,13.88
2016-08-10T00:23:48.945Z,13.78
2016-08-10T00:25:01.924Z,13.87
2016-08-10T00:26:14.888Z,13.84
2016-08-10T00:27:27.858Z,13.75
2016-08-10T00:28:40.820Z,13.78
2016-08-10T00:29:53.986Z,13.69
2016-08-10T00:31:06.953Z,13.73
2016-08-10T00:32:19.915Z,13.76
2016-08-10T00:33:32.879Z,13.73
2016-08-10T00:34:45.845Z,13.66
2016-08-10T00:35:58.813Z,13.66
2016-08-10T00:37:11.794Z,13.55
2016-08-10T00:38:24.755Z,13.75
2016-08-10T00:39:37.721Z,13.75
2016-08-10T00:40:50.687Z,13.75
2016-08-10T00:42:03.652Z,13.73
2016-08-10T00:43:16.623Z,13.66
2016-08-10T00:44:29.803Z,13.63
2016-08-10T00:45:42.973Z,13.68
2016-08-10T00:46:55.949Z,13.63
2016-08-10T00:48:08.919Z,13.68
2016-08-10T00:49:21.889Z,13.63
2016-08-10T00:50:34.863Z,13.72
2016-08-10T00:51:47.846Z,13.63
2016-08-10T00:53:00.813Z,13.69
2016-08-10T00:54:13.777Z,13.6
2016-08-10T00:55:26.744Z,13.69
2016-08-10T00:56:39.712Z,13.66
2016-08-10T00:57:52.685Z,13.62
2016-08-10T00:59:05.665Z,13.65
2016-08-10T01:00:19.049Z,13.7
2016-08-10T01:01:32.015Z,13.6
2016-08-10T01:02:44.992Z,13.69
2016-08-10T01:03:57.955Z,13.58
2016-08-10T01:05:10.926Z,13.63
2016-08-10T01:06:24.096Z,13.6
2016-08-10T01:08:48.166Z,13.54
2016-08-10T01:10:01.342Z,13.57
2016-08-10T01:11:14.326Z,13.6
2016-08-10T01:12:27.286Z,13.57
2016-08-10T01:13:40.253Z,13.55
2016-08-10T01:14:53.221Z,13.58
2016-08-10T01:16:06.192Z,13.58
2016-08-10T01:17:19.171Z,13.65
2016-08-10T01:18:32.138Z,13.57
2016-08-10T01:19:45.310Z,13.55
2016-08-10T01:20:58.291Z,13.63
2016-08-10T01:22:11.471Z,13.57
2016-08-10T01:23:24.438Z,13.65
2016-08-10T01:24:37.407Z,13.57
2016-08-10T01:25:50.367Z,13.6
2016-08-10T01:27:03.332Z,13.57
2016-08-10T01:28:16.493Z,13.58
2016-08-10T01:29:29.457Z,13.63
2016-08-10T01:30:42.417Z,13.58
2016-08-10T01:31:55.590Z,13.6
2016-08-10T01:33:08.562Z,13.55
2016-08-10T01:34:21.539Z,13.6
2016-08-10T01:35:34.710Z,13.58
2016-08-10T01:36:47.679Z,13.54
2016-08-10T01:38:00.186Z,13.57
2016-08-10T01:39:13.147Z,13.54
2016-08-10T01:40:26.125Z,13.54
2016-08-10T01:41:39.097Z,13.53
2016-08-10T01:42:52.065Z,13.57
2016-08-10T01:44:05.034Z,13.63
2016-08-10T01:45:18.002Z,13.58
2016-08-10T01:46:30.971Z,13.54
2016-08-10T01:47:43.947Z,13.48
2016-08-10T01:48:56.935Z,13.53
2016-08-10T01:50:10.106Z,13.54
2016-08-10T01:51:23.476Z,13.51
2016-08-10T01:52:36.439Z,13.45
2016-08-10T01:53:49.412Z,13.48
2016-08-10T01:55:02.380Z,13.54
2016-08-10T01:56:15.347Z,13.44
2016-08-10T01:57:28.516Z,13.47
2016-08-10T01:58:41.688Z,13.47
2016-08-10T01:59:54.664Z,13.4
2016-08-10T02:01:07.635Z,13.45
2016-08-10T02:02:20.630Z,13.27
2016-08-10T02:03:33.598Z,13.36
2016-08-10T02:04:46.574Z,13.45
2016-08-10T02:05:59.754Z,13.42
2016-08-10T02:07:12.726Z,13.45
2016-08-10T02:08:25.692Z,13.45
2016-08-10T02:09:38.677Z,13.27
2016-08-10T02:10:51.654Z,13.47
2016-08-10T02:12:04.626Z,13.36
2016-08-10T02:13:17.599Z,13.35
2016-08-10T02:14:30.566Z,13.35
2016-08-10T02:15:43.535Z,13.36
2016-08-10T02:16:56.502Z,13.21
2016-08-10T02:18:09.464Z,13.29
2016-08-10T02:19:22.431Z,13.27
2016-08-10T02:20:35.406Z,13.27
2016-08-10T02:21:48.366Z,13.36
2016-08-10T02:24:12.910Z,13.19
2016-08-10T02:25:26.094Z,13.2
2016-08-10T02:26:39.078Z,13.19
2016-08-10T02:27:52.046Z,13.19
2016-08-10T02:29:05.234Z,13.21
2016-08-10T02:30:18.197Z,13.2
2016-08-10T02:31:31.177Z,13.19
2016-08-10T02:32:44.141Z,13.11
2016-08-10T02:33:57.312Z,13.16
2016-08-10T02:35:10.283Z,13.2
2016-08-10T02:36:23.461Z,13.14
2016-08-10T02:37:36.431Z,13.14
2016-08-10T02:38:49.398Z,13.11
2016-08-10T02:40:02.362Z,13.19
2016-08-10T02:41:15.336Z,13.07
2016-08-10T02:42:28.309Z,13.03
2016-08-10T02:43:41.280Z,13.03
2016-08-10T02:44:54.455Z,12.94
2016-08-10T02:46:07.426Z,12.89
2016-08-10T02:47:20.392Z,12.81
2016-08-10T02:48:33.356Z,12.83
2016-08-10T02:49:46.321Z,12.83
2016-08-10T02:50:59.486Z,12.73
2016-08-10T02:52:12.453Z,12.73
2016-08-10T02:53:24.966Z,12.83
2016-08-10T02:54:38.141Z,12.7
2016-08-10T02:55:51.108Z,12.69
2016-08-10T02:57:04.086Z,12.7
2016-08-10T02:58:17.274Z,12.73
2016-08-10T02:59:30.246Z,12.65
2016-08-10T03:00:43.231Z,12.56
2016-08-10T03:01:56.201Z,12.55
2016-08-10T03:03:09.179Z,12.62
2016-08-10T03:04:22.140Z,12.74
2016-08-10T03:05:35.105Z,12.58
2016-08-10T03:06:48.069Z,12.69
2016-08-10T03:08:01.036Z,12.61
2016-08-10T03:09:14.006Z,12.69
2016-08-10T03:10:26.974Z,12.71
2016-08-10T03:11:39.939Z,12.63
2016-08-10T03:12:52.899Z,12.59
2016-08-10T03:14:06.065Z,12.62
2016-08-10T03:15:19.032Z,12.58
2016-08-10T03:16:32.002Z,12.51
2016-08-10T03:17:44.970Z,12.59
2016-08-10T03:18:58.345Z,12.45
2016-08-10T03:20:11.312Z,12.43
2016-08-10T03:21:24.278Z,12.41
2016-08-10T03:22:37.260Z,12.47
2016-08-10T03:23:50.239Z,12.4
2016-08-10T03:25:03.202Z,12.4
2016-08-10T03:26:16.167Z,12.36
2016-08-10T03:27:29.536Z,12.33
2016-08-10T03:28:42.507Z,12.31
2016-08-10T03:29:55.484Z,12.26
2016-08-10T03:31:08.651Z,12.33
2016-08-10T03:32:21.620Z,12.29
2016-08-10T03:33:34.588Z,12.28
2016-08-10T03:34:47.559Z,12.26
2016-08-10T03:36:00.526Z,12.22
2016-08-10T03:37:13.491Z,12.19
2016-08-10T03:39:37.558Z,12.05
2016-08-10T03:40:50.720Z,12.03
2016-08-10T03:42:03.690Z,12.05
2016-08-10T03:43:16.655Z,12.05
2016-08-10T03:44:29.633Z,11.94
2016-08-10T03:45:42.601Z,11.98
2016-08-10T03:46:55.763Z,11.97
2016-08-10T03:48:08.735Z,11.89
2016-08-10T03:49:21.907Z,11.91
2016-08-10T03:50:34.876Z,11.86
2016-08-10T03:51:47.840Z,11.86
2016-08-10T03:53:00.815Z,11.84
2016-08-10T03:54:13.788Z,11.84
2016-08-10T03:55:26.756Z,11.84
2016-08-10T03:56:39.720Z,11.89
2016-08-10T03:57:52.680Z,11.88
2016-08-10T03:59:06.042Z,11.97
2016-08-10T04:00:19.229Z,11.91
2016-08-10T04:01:32.404Z,11.98
2016-08-10T04:02:45.412Z,11.89
2016-08-10T04:03:58.382Z,11.89
2016-08-10T04:05:11.362Z,11.95
2016-08-10T04:06:24.326Z,11.94
2016-08-10T04:07:37.292Z,11.91
2016-08-10T04:08:50.255Z,11.89
2016-08-10T04:10:03.417Z,11.91
2016-08-10T04:11:16.392Z,11.91
2016-08-10T04:12:29.355Z,11.94
2016-08-10T04:13:42.320Z,12
2016-08-10T04:14:55.283Z,11.88
2016-08-10T04:16:08.302Z,11.98
2016-08-10T04:17:21.266Z,11.86
2016-08-10T04:18:34.243Z,11.82
2016-08-10T04:19:47.231Z,11.86
2016-08-10T04:21:00.203Z,11.81
2016-08-10T04:22:13.185Z,11.91
2016-08-10T04:24:37.746Z,11.85
2016-08-10T04:25:50.711Z,11.84
2016-08-10T04:27:03.689Z,11.91
2016-08-10T04:28:16.652Z,11.89
2016-08-10T04:29:29.619Z,11.85
2016-08-10T04:30:42.588Z,11.82
2016-08-10T04:31:55.557Z,11.86
2016-08-10T04:33:08.539Z,11.95
2016-08-10T04:34:21.511Z,11.89
2016-08-10T04:35:34.676Z,11.89
2016-08-10T04:36:47.851Z,11.84
2016-08-10T04:38:00.816Z,11.91
2016-08-10T04:39:13.812Z,11.91
2016-08-10T04:40:26.784Z,11.89
2016-08-10T04:41:39.748Z,11.91
2016-08-10T04:42:52.712Z,11.91
2016-08-10T04:44:05.678Z,11.94
2016-08-10T04:45:18.640Z,11.86
2016-08-10T04:46:31.615Z,12.01
2016-08-10T04:47:44.801Z,11.97
2016-08-10T04:48:57.769Z,11.94
2016-08-10T04:50:10.739Z,11.97
2016-08-10T04:51:23.704Z,11.88
2016-08-10T04:52:36.672Z,12.04
2016-08-10T04:53:49.646Z,11.91
2016-08-10T04:55:02.636Z,11.97
2016-08-10T04:56:15.609Z,12.05
2016-08-10T04:57:28.574Z,12
2016-08-10T04:58:41.544Z,11.97
2016-08-10T04:59:54.508Z,12.05
2016-08-10T05:01:07.491Z,12.1
2016-08-10T05:02:20.454Z,12.03
2016-08-10T05:03:33.427Z,12.15
2016-08-10T05:04:46.394Z,12.16
2016-08-10T05:05:59.366Z,12.1
2016-08-10T05:07:12.344Z,12.23
2016-08-10T05:08:25.326Z,12.22
2016-08-10T05:09:37.847Z,12.2
2016-08-10T05:10:50.816Z,12.25
2016-08-10T05:12:03.783Z,12.2
2016-08-10T05:13:16.755Z,12.23
2016-08-10T05:14:29.721Z,12.28
2016-08-10T05:15:42.701Z,12.28
2016-08-10T05:16:55.667Z,12.19
2016-08-10T05:18:08.638Z,12.31
2016-08-10T05:19:21.600Z,12.34
2016-08-10T05:20:34.573Z,12.19
2016-08-10T05:21:47.744Z,12.23
2016-08-10T05:23:00.714Z,12.29
2016-08-10T05:24:13.682Z,12.26
2016-08-10T05:25:26.648Z,12.26
2016-08-10T05:26:39.636Z,12.25
2016-08-10T05:27:52.614Z,12.34
2016-08-10T05:29:05.584Z,12.23
2016-08-10T05:30:18.552Z,12.28
2016-08-10T05:31:31.514Z,12.25
2016-08-10T05:32:44.491Z,12.26
2016-08-10T05:33:57.462Z,12.29
2016-08-10T05:35:10.630Z,12.29
2016-08-10T05:36:23.805Z,12.22
2016-08-10T05:37:36.766Z,12.33
2016-08-10T05:40:00.922Z,12.28
2016-08-10T05:41:13.888Z,12.22
2016-08-10T05:42:26.942Z,12.33
2016-08-10T05:43:39.920Z,12.28
2016-08-10T05:44:52.879Z,12.29
2016-08-10T05:46:06.058Z,12.34
2016-08-10T05:47:19.039Z,12.36
2016-08-10T05:48:32.013Z,12.38
2016-08-10T05:49:45.188Z,12.41
2016-08-10T05:50:58.154Z,12.43
2016-08-10T05:52:11.127Z,12.58
2016-08-10T05:53:24.106Z,12.53
2016-08-10T05:54:37.069Z,12.59
2016-08-10T05:55:50.043Z,12.61
2016-08-10T05:57:03.014Z,12.7
2016-08-10T05:58:16.391Z,12.81
2016-08-10T05:59:29.362Z,12.86
2016-08-10T06:00:42.332Z,12.77
2016-08-10T06:01:55.505Z,12.91
2016-08-10T06:03:08.482Z,12.96
2016-08-10T06:04:21.450Z,12.96
2016-08-10T06:05:34.620Z,12.95
2016-08-10T06:06:47.587Z,13.02
2016-08-10T06:08:00.562Z,13.03
2016-08-10T06:09:13.737Z,13.02
2016-08-10T06:10:26.718Z,13.06
2016-08-10T06:11:39.699Z,13.09
2016-08-10T06:12:52.671Z,13.13
2016-08-10T06:14:05.645Z,13.13
2016-08-10T06:15:18.638Z,13.16
2016-08-10T06:16:31.603Z,13.2
2016-08-10T06:17:44.583Z,13.28
2016-08-10T06:18:57.561Z,13.36
2016-08-10T06:20:10.523Z,13.35
2016-08-10T06:21:23.495Z,13.39
2016-08-10T06:22:36.460Z,13.4
2016-08-10T06:23:49.434Z,13.48
2016-08-10T06:25:02.402Z,13.57
2016-08-10T06:26:15.374Z,13.63
2016-08-10T06:27:28.555Z,13.76
2016-08-10T06:28:41.534Z,13.83
2016-08-10T06:29:54.699Z,13.95
2016-08-10T06:31:07.663Z,13.87
2016-08-10T06:32:20.629Z,14.08
2016-08-10T06:33:33.590Z,14.11
2016-08-10T06:34:46.559Z,14.13
2016-08-10T06:35:59.537Z,14.15
2016-08-10T06:37:12.511Z,14.06
2016-08-10T06:38:25.497Z,14.2
2016-08-10T06:39:38.471Z,14.24
2016-08-10T06:40:51.436Z,14.3
2016-08-10T06:42:04.420Z,14.57
2016-08-10T06:43:17.389Z,14.61
2016-08-10T06:44:30.362Z,14.94
2016-08-10T06:45:43.546Z,15.34
2016-08-10T06:46:56.550Z,15.73
2016-08-10T06:48:09.521Z,15.84
2016-08-10T06:49:22.493Z,16.27
2016-08-10T06:50:35.686Z,16.62
2016-08-10T06:51:48.323Z,17.05
2016-08-10T06:53:01.305Z,17.31
2016-08-10T06:55:25.880Z,17.79
2016-08-10T06:56:38.850Z,18.16
2016-08-10T06:57:51.841Z,18.47
2016-08-10T06:59:04.818Z,18.86
2016-08-10T07:00:17.995Z,19.15
2016-08-10T07:01:30.973Z,19.47
2016-08-10T07:02:43.954Z,19.68
2016-08-10T07:03:56.931Z,19.8
2016-08-10T07:05:10.111Z,19.92
2016-08-10T07:06:23.099Z,19.98
2016-08-10T07:07:36.080Z,20.19
2016-08-10T07:08:49.063Z,20.56
2016-08-10T07:10:02.060Z,20.79
2016-08-10T07:11:15.044Z,20.94
2016-08-10T07:12:28.024Z,21.31
2016-08-10T07:13:41.007Z,21.33
2016-08-10T07:14:53.996Z,21.59
2016-08-10T07:16:06.990Z,21.67
2016-08-10T07:17:19.972Z,21.71
2016-08-10T07:18:33.156Z,21.94
2016-08-10T07:19:46.141Z,22.14
2016-08-10T07:20:59.134Z,22.31
2016-08-10T07:22:12.123Z,22.52
2016-08-10T07:23:25.106Z,22.51
2016-08-10T07:24:38.109Z,22.3
2016-08-10T07:25:51.095Z,22.45
2016-08-10T07:27:04.086Z,22.64
2016-08-10T07:28:17.073Z,22.52
2016-08-10T07:29:30.276Z,22.66
2016-08-10T07:30:43.258Z,22.85
2016-08-10T07:31:56.242Z,22.92
2016-08-10T07:33:09.431Z,22.92
2016-08-10T07:34:22.641Z,23.1
2016-08-10T07:35:35.635Z,23.41
2016-08-10T07:36:48.620Z,23.6
2016-08-10T07:38:01.607Z,23.64
2016-08-10T07:39:14.593Z,23.87
2016-08-10T07:40:27.110Z,23.53
2016-08-10T07:41:40.096Z,23.52
2016-08-10T07:42:53.096Z,23.64
2016-08-10T07:44:06.289Z,23.84
2016-08-10T07:45:19.292Z,23.89
2016-08-10T07:46:32.285Z,23.97
2016-08-10T07:47:45.273Z,24.04
2016-08-10T07:48:58.254Z,24.12
2016-08-10T07:50:11.449Z,24.11
2016-08-10T07:51:24.843Z,24.24
2016-08-10T07:52:37.838Z,23.9
2016-08-10T07:53:50.841Z,23.67
2016-08-10T07:55:04.032Z,23.74
2016-08-10T07:56:17.226Z,23.82
2016-08-10T07:57:30.224Z,23.79
2016-08-10T07:58:43.209Z,23.5
2016-08-10T07:59:56.195Z,23.26
2016-08-10T08:01:09.200Z,23.28
2016-08-10T08:02:22.393Z,23.52
2016-08-10T08:03:35.393Z,23.87
2016-08-10T08:04:48.387Z,23.97
2016-08-10T08:06:01.371Z,23.93
2016-08-10T08:07:14.358Z,24.17
2016-08-10T08:08:27.556Z,24.51
2016-08-10T08:09:40.547Z,24.67
2016-08-10T08:10:53.540Z,24.75
2016-08-10T08:12:06.541Z,24.92
2016-08-10T08:13:19.541Z,25.07
2016-08-10T08:14:32.549Z,25.22
2016-08-10T08:15:45.592Z,24.71
2016-08-10T08:16:58.591Z,24.34
2016-08-10T08:18:11.589Z,23.97
2016-08-10T08:19:24.569Z,23.44
2016-08-10T08:20:37.556Z,22.91
2016-08-10T08:21:50.543Z,22.75
2016-08-10T08:23:03.733Z,23.09
2016-08-10T08:24:16.723Z,23.59
2016-08-10T08:25:28.782Z,23.63
2016-08-10T08:26:41.776Z,23.99
2016-08-10T08:27:54.767Z,24.27
2016-08-10T08:29:07.761Z,24.51
2016-08-10T08:30:20.745Z,24.77
2016-08-10T08:31:33.743Z,25.05
2016-08-10T08:32:46.733Z,25.34
2016-08-10T08:33:59.725Z,25.6
2016-08-10T08:35:12.927Z,25.41
2016-08-10T08:36:25.921Z,25.15
2016-08-10T08:37:38.909Z,24.78
2016-08-10T08:38:51.909Z,24.75
2016-08-10T08:40:04.892Z,24.97
2016-08-10T08:41:17.897Z,25.14
2016-08-10T08:42:31.103Z,25.27
2016-08-10T08:43:44.295Z,25.33
2016-08-10T08:44:57.498Z,25.56
2016-08-10T08:46:10.702Z,25.86
2016-08-10T08:47:23.698Z,25.67
2016-08-10T08:48:36.682Z,25.66
2016-08-10T08:49:49.672Z,25.39
2016-08-10T08:51:02.668Z,25.09
2016-08-10T08:52:15.856Z,24.71
2016-08-10T08:53:28.844Z,24.49
2016-08-10T08:54:41.834Z,24.71
2016-08-10T08:55:54.823Z,24.87
2016-08-10T08:57:08.027Z,24.74
2016-08-10T08:58:21.020Z,24.7
2016-08-10T08:59:34.004Z,24.49
2016-08-10T09:00:47.012Z,24.3
2016-08-10T09:02:00.195Z,24.63
2016-08-10T09:03:13.184Z,24.74
2016-08-10T09:04:26.172Z,24.8
2016-08-10T09:05:39.157Z,24.93
2016-08-10T09:06:52.347Z,25.24
2016-08-10T09:08:05.338Z,25.12
2016-08-10T09:09:18.320Z,25.07
2016-08-10T09:10:30.847Z,24.93
2016-08-10T09:11:44.041Z,25.17
2016-08-10T09:12:57.034Z,25.34
2016-08-10T09:14:10.222Z,25.42
2016-08-10T09:15:23.271Z,25.17
2016-08-10T09:16:36.257Z,24.94
2016-08-10T09:17:49.274Z,24.71
2016-08-10T09:19:02.262Z,24.93
2016-08-10T09:20:15.448Z,25.17
2016-08-10T09:21:28.435Z,25.52
2016-08-10T09:22:41.625Z,25.93
2016-08-10T09:23:54.621Z,26.15
2016-08-10T09:25:07.618Z,26.3
2016-08-10T09:26:20.619Z,26.53
2016-08-10T09:27:33.625Z,26.5
2016-08-10T09:28:46.624Z,26.68
2016-08-10T09:29:59.620Z,26.89
2016-08-10T09:31:12.620Z,27.16
2016-08-10T09:32:25.614Z,27.3
2016-08-10T09:33:38.804Z,27.13
2016-08-10T09:34:51.794Z,27.28
2016-08-10T09:36:04.793Z,26.89
2016-08-10T09:37:17.793Z,26.82
2016-08-10T09:38:30.791Z,26.49
2016-08-10T09:39:42.854Z,25.96
2016-08-10T09:40:56.046Z,25.81
2016-08-10T09:42:09.038Z,25.89
2016-08-10T09:43:22.039Z,25.94
2016-08-10T09:44:35.029Z,26.27
2016-08-10T09:45:48.020Z,26.52
2016-08-10T09:47:01.214Z,26.6
2016-08-10T09:48:14.208Z,26.81
2016-08-10T09:49:27.206Z,26.72
2016-08-10T09:50:40.200Z,26.39
2016-08-10T09:51:53.194Z,26
2016-08-10T09:53:06.191Z,25.48
2016-08-10T09:54:19.183Z,25.59
2016-08-10T09:55:32.193Z,25.81
2016-08-10T09:56:45.385Z,26.17
2016-08-10T09:57:58.374Z,26.38
2016-08-10T09:59:11.368Z,26.45
2016-08-10T10:00:24.364Z,26.52
2016-08-10T10:01:37.348Z,26.69
2016-08-10T10:02:50.349Z,26.82
2016-08-10T10:04:03.338Z,26.87
2016-08-10T10:05:16.531Z,27.12
2016-08-10T10:06:29.521Z,27.33
2016-08-10T10:07:42.526Z,27.53
2016-08-10T10:08:55.931Z,27.83
2016-08-10T10:10:08.929Z,27.94
2016-08-10T10:11:21.924Z,28.18
2016-08-10T10:12:35.115Z,28.06
2016-08-10T10:13:48.304Z,27.75
2016-08-10T10:15:01.307Z,27.51
2016-08-10T10:16:14.552Z,27.18
2016-08-10T10:17:27.553Z,26.9
2016-08-10T10:18:40.553Z,26.91
2016-08-10T10:19:53.545Z,26.97
2016-08-10T10:21:06.539Z,26.99
2016-08-10T10:22:19.533Z,27.06
2016-08-10T10:23:32.526Z,26.82
2016-08-10T10:24:45.711Z,26.32
2016-08-10T10:25:57.773Z,25.94
2016-08-10T10:27:10.768Z,25.51
2016-08-10T10:28:23.755Z,25.15
2016-08-10T10:29:36.742Z,24.89
2016-08-10T10:30:49.908Z,24.74
2016-08-10T10:32:03.096Z,24.46
2016-08-10T10:33:16.087Z,24.03
2016-08-10T10:34:29.079Z,24.02
2016-08-10T10:35:42.063Z,24.54
2016-08-10T10:36:55.246Z,24.92
2016-08-10T10:38:08.241Z,25.05
2016-08-10T10:39:21.227Z,24.97
2016-08-10T10:40:34.222Z,24.93
2016-08-10T10:41:47.408Z,24.61
2016-08-10T10:43:00.398Z,24.29
2016-08-10T10:44:13.388Z,24.15
2016-08-10T10:45:26.402Z,23.82
2016-08-10T10:46:39.396Z,23.52
2016-08-10T10:47:52.584Z,23.32
2016-08-10T10:49:05.575Z,23.28
2016-08-10T10:50:18.566Z,23.16
2016-08-10T10:51:31.556Z,23.06
2016-08-10T10:52:44.748Z,22.97
2016-08-10T10:53:57.740Z,22.73
2016-08-10T10:55:10.730Z,22.6
2016-08-10T10:56:23.711Z,22.51
2016-08-10T10:57:36.703Z,22.31
2016-08-10T10:58:49.689Z,21.93
2016-08-10T11:00:02.682Z,21.61
2016-08-10T11:01:15.886Z,21.36
2016-08-10T11:02:29.068Z,21
2016-08-10T11:03:42.059Z,20.94
2016-08-10T11:04:55.250Z,20.75
2016-08-10T11:06:08.235Z,20.74
2016-08-10T11:07:21.207Z,20.98
2016-08-10T11:08:34.186Z,20.9
2016-08-10T11:09:47.170Z,20.81
2016-08-10T11:11:00.152Z,20.81
2016-08-10T11:12:13.144Z,20.76
2016-08-10T11:13:26.142Z,20.72
2016-08-10T11:14:39.135Z,20.85
2016-08-10T11:15:52.115Z,21
2016-08-10T11:17:05.549Z,21.27
2016-08-10T11:18:18.529Z,21.51
2016-08-10T11:19:31.542Z,21.56
2016-08-10T11:20:44.728Z,21.51
2016-08-10T11:21:57.704Z,21.62
2016-08-10T11:23:10.894Z,21.97
2016-08-10T11:24:23.870Z,22.08
2016-08-10T11:25:37.053Z,22.29
2016-08-10T11:26:50.042Z,22.12
2016-08-10T11:28:03.017Z,22.04
2016-08-10T11:29:16.213Z,21.76
2016-08-10T11:30:29.201Z,21.74
2016-08-10T11:31:42.389Z,21.77
2016-08-10T11:32:55.369Z,21.49
2016-08-10T11:34:08.357Z,21.16
2016-08-10T11:35:21.362Z,21.03
2016-08-10T11:36:34.340Z,21.08
2016-08-10T11:37:47.325Z,20.9
2016-08-10T11:39:00.301Z,20.75
2016-08-10T11:41:24.887Z,20.67
2016-08-10T11:42:38.064Z,20.64
2016-08-10T11:43:51.056Z,20.64
2016-08-10T11:45:04.245Z,20.67
2016-08-10T11:46:17.425Z,20.98
2016-08-10T11:47:30.401Z,21.13
2016-08-10T11:48:43.392Z,21.53
2016-08-10T11:49:56.365Z,22.02
2016-08-10T11:51:09.353Z,22.3
2016-08-10T11:52:22.337Z,22.51
2016-08-10T11:53:35.322Z,22.79
2016-08-10T11:54:48.318Z,22.91
2016-08-10T11:56:01.304Z,22.92
2016-08-10T11:57:14.482Z,23.12
2016-08-10T11:58:27.669Z,23.26
2016-08-10T11:59:40.799Z,23.45
2016-08-10T12:00:53.784Z,23.71
2016-08-10T12:02:06.769Z,23.77
2016-08-10T12:03:19.761Z,23.7
2016-08-10T12:04:32.740Z,23.71
2016-08-10T12:05:45.730Z,23.84
2016-08-10T12:06:58.919Z,23.9
2016-08-10T12:08:11.906Z,23.99
2016-08-10T12:09:24.896Z,24.03
2016-08-10T12:10:37.884Z,24.19
2016-08-10T12:11:50.867Z,24.34
2016-08-10T12:13:03.845Z,24.34
2016-08-10T12:14:16.841Z,24.32
2016-08-10T12:15:29.845Z,24.37
2016-08-10T12:16:42.830Z,24.56
2016-08-10T12:17:55.829Z,24.18
2016-08-10T12:19:08.833Z,24.17
2016-08-10T12:20:21.809Z,24.37
2016-08-10T12:21:34.795Z,24.15
2016-08-10T12:22:47.974Z,24.15
2016-08-10T12:24:00.962Z,24.17
2016-08-10T12:25:13.944Z,24.12
2016-08-10T12:26:26.414Z,23.97
2016-08-10T12:27:39.396Z,23.96
2016-08-10T12:28:52.384Z,24.08
2016-08-10T12:30:05.384Z,24
2016-08-10T12:31:18.378Z,23.79
2016-08-10T12:32:31.374Z,23.63
2016-08-10T12:33:44.356Z,23.7
2016-08-10T12:34:57.550Z,23.63
2016-08-10T12:36:10.537Z,23.45
2016-08-10T12:37:23.525Z,23.32
2016-08-10T12:38:36.513Z,23.4
2016-08-10T12:39:49.704Z,23.5
2016-08-10T12:41:02.890Z,23.48
2016-08-10T12:42:15.873Z,23.16
2016-08-10T12:43:28.865Z,22.97
2016-08-10T12:44:41.851Z,22.89
2016-08-10T12:45:54.833Z,22.61
2016-08-10T12:47:07.812Z,22.46
2016-08-10T12:48:20.790Z,22.29
2016-08-10T12:49:33.777Z,22
2016-08-10T12:50:46.756Z,21.86
2016-08-10T12:51:59.738Z,21.76
2016-08-10T12:53:12.924Z,21.7
2016-08-10T12:54:26.123Z,21.58
2016-08-10T12:55:39.311Z,21.04
2016-08-10T12:56:52.289Z,20.9
2016-08-10T12:58:05.275Z,20.66
2016-08-10T12:59:18.460Z,20.4
2016-08-10T13:00:31.459Z,20.19
2016-08-10T13:01:44.441Z,20.05
2016-08-10T13:02:57.431Z,19.92
2016-08-10T13:04:10.420Z,19.93
2016-08-10T13:05:23.600Z,19.87
2016-08-10T13:06:36.797Z,20
2016-08-10T13:07:49.785Z,19.9
2016-08-10T13:09:02.760Z,19.92
2016-08-10T13:10:15.735Z,19.8
2016-08-10T13:11:27.795Z,19.83
2016-08-10T13:12:40.760Z,19.86
2016-08-10T13:13:53.734Z,19.78
2016-08-10T13:15:06.717Z,19.78
2016-08-10T13:16:19.695Z,19.67
2016-08-10T13:17:32.676Z,19.64
2016-08-10T13:18:45.856Z,19.83
2016-08-10T13:19:58.839Z,19.9
2016-08-10T13:21:11.817Z,20.1
2016-08-10T13:22:24.801Z,20.3
2016-08-10T13:23:37.769Z,20.44
2016-08-10T13:24:50.742Z,20.35
2016-08-10T13:26:03.729Z,20.41
2016-08-10T13:27:16.712Z,20.26
2016-08-10T13:28:29.695Z,20.2
2016-08-10T13:29:42.667Z,20.22
2016-08-10T13:30:55.846Z,20.1
2016-08-10T13:32:08.827Z,20.2
2016-08-10T13:33:21.806Z,20.41
2016-08-10T13:34:34.785Z,20.57
2016-08-10T13:35:47.767Z,20.64
2016-08-10T13:37:00.756Z,20.74
2016-08-10T13:38:13.727Z,20.78
2016-08-10T13:39:26.708Z,20.91
2016-08-10T13:40:39.693Z,20.9
2016-08-10T13:41:52.879Z,20.91
2016-08-10T13:43:06.070Z,20.98
2016-08-10T13:44:19.250Z,21.08
2016-08-10T13:45:32.214Z,20.96
2016-08-10T13:46:45.185Z,20.94
2016-08-10T13:47:58.369Z,20.96
2016-08-10T13:49:11.353Z,20.98
2016-08-10T13:50:24.326Z,20.83
2016-08-10T13:51:37.301Z,20.88
2016-08-10T13:52:50.286Z,20.75
2016-08-10T13:54:03.274Z,20.78
2016-08-10T13:55:16.243Z,20.79
2016-08-10T13:56:29.238Z,20.83
2016-08-10T13:57:42.219Z,20.93
2016-08-10T13:58:55.204Z,21
2016-08-10T14:00:08.180Z,21.11
2016-08-10T14:01:21.164Z,21.09
2016-08-10T14:02:34.155Z,21.15
2016-08-10T14:03:47.133Z,21.18
2016-08-10T14:05:00.311Z,21.28
2016-08-10T14:06:13.286Z,21.23
2016-08-10T14:07:26.272Z,21.34
2016-08-10T14:08:39.249Z,21.38
2016-08-10T14:09:52.216Z,21.45
2016-08-10T14:11:05.192Z,21.53
2016-08-10T14:12:18.166Z,21.4
2016-08-10T14:13:31.147Z,21.33
2016-08-10T14:14:44.336Z,21.41
2016-08-10T14:15:57.310Z,21.34
2016-08-10T14:17:10.343Z,21.37
2016-08-10T14:18:23.529Z,21.33
2016-08-10T14:19:36.711Z,21.4
2016-08-10T14:20:49.692Z,21.46
2016-08-10T14:22:02.676Z,21.52
2016-08-10T14:23:15.664Z,21.67
2016-08-10T14:24:28.656Z,21.61
2016-08-10T14:25:40.912Z,21.59
2016-08-10T14:26:53.893Z,21.49
2016-08-10T14:28:06.865Z,21.51
2016-08-10T14:29:19.878Z,21.45
2016-08-10T14:30:33.052Z,21.37
2016-08-10T14:31:46.243Z,21.34
2016-08-10T14:32:59.229Z,21.22
2016-08-10T14:34:12.215Z,21.01
2016-08-10T14:35:25.204Z,20.85
2016-08-10T14:36:38.381Z,20.63
2016-08-10T14:37:51.371Z,20.41
2016-08-10T14:39:04.345Z,20
2016-08-10T14:40:17.339Z,19.53
2016-08-10T14:41:30.314Z,19.27
2016-08-10T14:42:43.284Z,18.96
2016-08-10T14:43:56.274Z,18.78
2016-08-10T14:45:09.254Z,18.6
2016-08-10T14:46:22.238Z,18.45
2016-08-10T14:47:35.213Z,18.14
2016-08-10T14:48:48.198Z,17.95
2016-08-10T14:50:01.175Z,17.83
2016-08-10T14:51:14.151Z,17.92
2016-08-10T14:52:27.133Z,17.76
2016-08-10T14:53:40.102Z,17.71
2016-08-10T14:54:53.089Z,17.55
2016-08-10T14:56:06.067Z,17.46
2016-08-10T14:57:19.038Z,17.4
2016-08-10T14:58:32.003Z,17.06
2016-08-10T14:59:44.981Z,17
2016-08-10T15:00:58.156Z,16.95
2016-08-10T15:02:11.141Z,16.9
2016-08-10T15:03:24.117Z,16.67
2016-08-10T15:04:37.089Z,16.67
2016-08-10T15:05:50.068Z,16.57
2016-08-10T15:07:03.039Z,16.55
2016-08-10T15:08:16.012Z,16.57
2016-08-10T15:09:29.191Z,16.51
2016-08-10T15:10:42.156Z,16.51
2016-08-10T15:11:54.665Z,16.39
2016-08-10T15:13:07.646Z,16.21
2016-08-10T15:14:20.618Z,16.13
2016-08-10T15:15:33.603Z,16.16
2016-08-10T15:16:46.783Z,16.08
2016-08-10T15:17:59.816Z,16.08
2016-08-10T15:19:12.983Z,16.07
2016-08-10T15:20:25.962Z,16.14
2016-08-10T15:21:38.932Z,16.17
2016-08-10T15:22:52.112Z,16.13
2016-08-10T15:24:05.076Z,16.17
2016-08-10T15:25:18.063Z,16.17
2016-08-10T15:26:31.039Z,16.34
2016-08-10T15:27:44.003Z,16.37
2016-08-10T15:28:56.992Z,16.3
2016-08-10T15:30:09.963Z,16.3
2016-08-10T15:31:23.181Z,16.32
2016-08-10T15:32:36.359Z,16.32
2016-08-10T15:33:49.337Z,16.3
2016-08-10T15:35:02.523Z,16.33
2016-08-10T15:36:15.506Z,16.21
2016-08-10T15:37:28.670Z,16.16
2016-08-10T15:38:41.643Z,16.14
2016-08-10T15:39:54.838Z,16.08
2016-08-10T15:41:06.886Z,15.93
2016-08-10T15:42:19.864Z,15.83
2016-08-10T15:43:32.842Z,15.77
2016-08-10T15:44:46.018Z,15.86
2016-08-10T15:45:59.001Z,15.88
2016-08-10T15:47:11.979Z,15.84
2016-08-10T15:48:24.956Z,15.93
2016-08-10T15:49:37.942Z,15.92
2016-08-10T15:50:50.924Z,15.83
2016-08-10T15:52:03.904Z,15.83
2016-08-10T15:53:16.888Z,15.92